Time;durP1;ratioP1;P1;durP2;ratioP2;P2;SDS_P1;SDS_P2;PMS_P1;PMS_P2;Temp;Humidity;BMP_temperature;BMP_pressure;BME280_temperature;BME280_humidity;BME280_pressure;Samples;Min_cycle;Max_cycle;Signal;HPM_P1;HPM_P2
2022/11/22 00:00:40;;;;;;;;;17.00;13.00;;;;;0.19;91.81;97352.03;4934893;28;104007;-68
2022/11/22 00:03:08;;;;;;;;;15.00;11.33;;;;;0.14;91.37;97353.53;4939942;28;102138;-68
2022/11/22 00:05:35;;;;;;;;;33.67;28.67;;;;;0.12;91.42;97348.41;4926050;28;102316;-68
2022/11/22 00:08:03;;;;;;;;;19.67;18.33;;;;;0.16;92.14;97349.72;4936095;28;102551;-67
2022/11/22 00:10:30;;;;;;;;;35.67;23.33;;;;;0.17;92.45;97350.56;4934105;28;103999;-68
2022/11/22 00:12:57;;;;;;;;;27.67;18.33;;;;;0.07;91.51;97360.53;4936375;28;102334;-68
2022/11/22 00:15:24;;;;;;;;;76.50;58.75;;;;;-0.27;90.60;97358.81;4920525;28;102543;-69
2022/11/22 00:17:51;;;;;;;;;63.00;48.33;;;;;-0.24;90.80;97357.69;4932801;28;102414;-68
2022/11/22 00:20:18;;;;;;;;;46.00;39.33;;;;;-0.32;90.83;97358.50;4926258;28;103872;-68
2022/11/22 00:22:45;;;;;;;;;34.33;30.67;;;;;-0.32;90.05;97363.81;4935506;28;102356;-69
2022/11/22 00:25:13;;;;;;;;;32.33;23.67;;;;;-0.39;88.41;97354.81;4937127;28;102485;-69
2022/11/22 00:27:40;;;;;;;;;37.33;27.00;;;;;-0.53;88.77;97363.41;4933315;28;102322;-70
2022/11/22 00:30:08;;;;;;;;;42.00;31.00;;;;;-0.60;90.33;97367.72;4931808;28;103987;-69
2022/11/22 00:32:35;;;;;;;;;63.33;46.67;;;;;-0.70;90.97;97375.81;4926863;28;102403;-69
2022/11/22 00:35:03;;;;;;;;;92.00;70.25;;;;;-0.87;93.83;97378.56;4932291;28;102269;-69
2022/11/22 00:37:30;;;;;;;;;94.00;62.25;;;;;-0.93;93.16;97364.13;4935379;28;102360;-69
2022/11/22 00:39:57;;;;;;;;;62.67;45.00;;;;;-0.82;92.87;97385.06;4918125;28;103974;-69
2022/11/22 00:42:24;;;;;;;;;62.00;46.67;;;;;-0.90;93.18;97380.53;4934624;28;102334;-68
2022/11/22 00:44:51;;;;;;;;;47.33;37.67;;;;;-1.04;93.46;97367.91;4929122;28;102372;-68
2022/11/22 00:47:18;;;;;;;;;67.67;49.33;;;;;-1.03;94.13;97387.28;4934937;28;102300;-68
2022/11/22 00:49:45;;;;;;;;;69.75;52.25;;;;;-1.11;93.95;97387.25;4913540;28;103975;-69
2022/11/22 00:52:12;;;;;;;;;55.33;42.33;;;;;-1.12;93.43;97394.38;4935700;28;102437;-69
2022/11/22 00:54:39;;;;;;;;;34.67;32.00;;;;;-1.08;92.93;97400.22;4937730;28;102478;-68
2022/11/22 00:57:06;;;;;;;;;51.00;43.67;;;;;-1.18;95.36;97402.13;4937867;28;102151;-69
2022/11/22 00:59:33;;;;;;;;;58.00;46.00;;;;;-1.27;96.14;97395.13;4931871;28;104226;-68
2022/11/22 01:02:00;;;;;;;;;66.67;45.00;;;;;-1.24;95.33;97414.19;4937311;28;104993;-68
2022/11/22 01:04:27;;;;;;;;;38.00;34.67;;;;;-1.28;94.28;97404.06;4931069;28;102476;-68
2022/11/22 01:06:54;;;;;;;;;50.33;39.67;;;;;-1.26;93.64;97404.75;4934006;28;102309;-68
2022/11/22 01:09:23;;;;;;;;;65.00;51.67;;;;;-1.37;94.78;97411.13;4919364;28;104023;-68
2022/11/22 01:11:50;;;;;;;;;70.75;55.50;;;;;-1.46;95.16;97404.13;4934840;28;102169;-69
2022/11/22 01:14:18;;;;;;;;;61.33;47.67;;;;;-1.46;94.53;97401.47;4933568;28;102217;-67
2022/11/22 01:16:45;;;;;;;;;71.50;50.75;;;;;-1.60;97.54;97392.25;4934023;28;102572;-68
2022/11/22 01:19:14;;;;;;;;;73.00;48.75;;;;;-1.63;96.70;97399.69;4942051;28;103686;-69
2022/11/22 01:21:41;;;;;;;;;57.33;45.00;;;;;-1.65;97.28;97383.09;4932905;28;102181;-69
2022/11/22 01:24:08;;;;;;;;;79.25;60.00;;;;;-1.73;99.09;97385.69;4933605;28;102417;-68
2022/11/22 01:26:36;;;;;;;;;91.75;67.75;;;;;-1.90;99.84;97371.50;4937690;28;102249;-68
2022/11/22 01:29:03;;;;;;;;;93.50;64.50;;;;;-1.92;100.00;97374.28;4932486;28;104233;-68
2022/11/22 01:31:31;;;;;;;;;76.00;56.75;;;;;-1.87;100.00;97379.97;4926542;28;102646;-69
2022/11/22 01:33:58;;;;;;;;;65.67;50.33;;;;;-1.78;100.00;97369.44;4932515;28;102312;-68
2022/11/22 01:36:26;;;;;;;;;53.67;41.00;;;;;-1.73;100.00;97357.38;4936226;28;102515;-69
2022/11/22 01:38:53;;;;;;;;;63.50;47.75;;;;;-1.76;100.00;97373.59;4918508;28;103977;-69
2022/11/22 01:41:20;;;;;;;;;84.50;63.75;;;;;-1.87;100.00;97361.44;4922836;28;105670;-68
2022/11/22 01:43:48;;;;;;;;;95.50;68.25;;;;;-1.95;100.00;97364.03;4941414;28;102484;-69
2022/11/22 01:46:33;;;;;;;;;88.50;64.50;;;;;-1.91;100.00;97359.25;4945596;28;102162;-69
2022/11/22 01:49:12;;;;;;;;;64.75;51.25;;;;;-1.83;100.00;97356.66;4928335;28;104108;-68
2022/11/22 01:51:48;;;;;;;;;52.33;38.33;;;;;-1.70;100.00;97356.22;4947994;28;102236;-68
2022/11/22 01:54:21;;;;;;;;;56.33;44.00;;;;;-1.72;100.00;97355.56;4930382;28;105179;-68
2022/11/22 01:56:53;;;;;;;;;48.75;42.00;;;;;-1.78;100.00;97358.84;4947621;28;102386;-68
2022/11/22 01:59:25;;;;;;;;;83.00;61.75;;;;;-1.85;100.00;97348.84;4948236;28;103984;-68
2022/11/22 02:01:53;;;;;;;;;89.25;68.50;;;;;-1.96;100.00;97343.81;4931161;28;102765;-68
2022/11/22 02:04:22;;;;;;;;;95.50;67.50;;;;;-2.04;100.00;97343.75;4931121;28;102531;-68
2022/11/22 02:07:32;;;;;;;;;89.50;64.75;;;;;-1.99;100.00;97353.88;4909996;28;102390;-68
2022/11/22 02:10:41;;;;;;;;;90.75;64.75;;;;;-2.00;100.00;97342.47;4931447;28;107258;-68
2022/11/22 02:13:29;;;;;;;;;80.75;59.00;;;;;-1.95;100.00;97345.47;4940412;28;102301;-68
2022/11/22 02:16:14;;;;;;;;;67.00;51.00;;;;;-1.92;100.00;97345.16;4943299;28;102296;-68
2022/11/22 02:18:58;;;;;;;;;71.75;56.00;;;;;-1.96;100.00;97341.16;4945432;28;103468;-68
2022/11/22 02:21:43;;;;;;;;;68.00;54.75;;;;;-1.95;100.00;97336.69;4933494;28;103066;-69
2022/11/22 02:25:00;;;;;;;;;74.00;57.00;;;;;-2.01;99.68;97332.84;4940223;28;102387;-68
2022/11/22 02:27:51;;;;;;;;;70.50;51.50;;;;;-1.99;100.00;97333.53;4937373;28;102208;-69
2022/11/22 02:30:18;;;;;;;;;60.33;40.67;;;;;-2.01;99.46;97324.91;4935730;28;102158;-68
2022/11/22 02:32:45;;;;;;;;;46.00;38.67;;;;;-1.95;98.93;97337.53;4927687;28;103982;-68
2022/11/22 02:35:22;;;;;;;;;40.67;31.67;;;;;-1.92;98.27;97342.50;4945573;28;102612;-69
2022/11/22 02:37:54;;;;;;;;;42.67;35.33;;;;;-1.97;98.17;97328.91;4942259;28;102113;-69
2022/11/22 02:40:22;;;;;;;;;56.00;41.67;;;;;-2.02;97.89;97317.94;4938388;28;102149;-69
2022/11/22 02:42:57;;;;;;;;;85.75;61.50;;;;;-2.09;98.08;97313.41;4949224;28;103998;-69
2022/11/22 02:45:24;;;;;;;;;63.00;49.50;;;;;-2.09;98.06;97302.81;4916296;28;102493;-69
2022/11/22 02:47:51;;;;;;;;;62.75;47.25;;;;;-2.07;98.65;97317.56;4945025;28;102434;-68
2022/11/22 02:50:18;;;;;;;;;55.00;46.00;;;;;-2.09;98.34;97311.59;4948363;28;102336;-68
2022/11/22 02:52:45;;;;;;;;;34.00;23.33;;;;;-2.00;98.15;97317.78;4942366;28;104014;-69
2022/11/22 02:55:12;;;;;;;;;28.33;23.00;;;;;-1.99;98.00;97317.66;4945124;28;102960;-69
2022/11/22 02:57:39;;;;;;;;;19.00;18.00;;;;;-2.03;96.59;97311.00;4948779;28;102719;-68
2022/11/22 03:00:06;;;;;;;;;15.33;11.00;;;;;-2.04;97.22;97304.03;4946727;28;102338;-68
2022/11/22 03:02:33;;;;;;;;;18.00;13.33;;;;;-2.06;96.36;97299.84;4929847;28;104113;-68
2022/11/22 03:05:00;;;;;;;;;10.33;7.67;;;;;-2.03;95.27;97302.22;4948502;28;102400;-68
2022/11/22 03:07:27;;;;;;;;;8.00;7.67;;;;;-2.05;96.48;97305.00;4946978;28;102383;-68
2022/11/22 03:09:54;;;;;;;;;12.67;9.33;;;;;-2.07;95.64;97301.66;4925732;28;102375;-68
2022/11/22 03:12:21;;;;;;;;;10.00;8.00;;;;;-2.09;94.60;97297.53;4945525;28;104265;-68
2022/11/22 03:14:48;;;;;;;;;3.00;1.00;;;;;-2.09;94.29;97303.66;4945612;28;102225;-68
2022/11/22 03:17:15;;;;;;;;;38.67;32.33;;;;;-2.16;94.70;97286.72;4948541;28;102317;-68
2022/11/22 03:19:42;;;;;;;;;50.00;37.00;;;;;-2.14;96.17;97305.94;4950015;28;102293;-68
2022/11/22 03:22:09;;;;;;;;;40.00;33.67;;;;;-2.09;95.28;97302.81;4948765;28;104008;-67
2022/11/22 03:24:37;;;;;;;;;61.25;46.75;;;;;-2.10;97.34;97309.09;4944060;28;102278;-68
2022/11/22 03:27:04;;;;;;;;;48.00;33.67;;;;;-2.05;96.43;97310.31;4933688;28;103730;-68
2022/11/22 03:29:31;;;;;;;;;36.00;28.67;;;;;-2.01;96.20;97309.00;4947682;28;102225;-68
2022/11/22 03:31:58;;;;;;;;;25.00;19.33;;;;;-2.01;95.54;97309.00;4920507;28;104029;-68
2022/11/22 03:34:25;;;;;;;;;19.00;15.33;;;;;-2.01;96.33;97316.94;4947201;28;102489;-69
2022/11/22 03:36:52;;;;;;;;;18.33;14.00;;;;;-2.01;96.23;97308.16;4948733;28;102121;-69
2022/11/22 03:39:19;;;;;;;;;13.33;11.33;;;;;-2.06;94.41;97313.94;4947337;28;102167;-70
2022/11/22 03:41:46;;;;;;;;;65.00;49.25;;;;;-2.31;92.84;97304.16;4941633;28;104187;-69
2022/11/22 03:44:13;;;;;;;;;66.50;49.50;;;;;-2.41;94.99;97298.94;4947375;28;103825;-70
2022/11/22 03:46:40;;;;;;;;;68.50;45.75;;;;;-2.45;94.38;97289.63;4946083;28;102056;-69
2022/11/22 03:49:07;;;;;;;;;60.33;46.00;;;;;-2.37;95.33;97292.34;4950300;28;102515;-69
2022/11/22 03:51:34;;;;;;;;;47.67;40.67;;;;;-2.36;95.46;97290.53;4949471;28;103994;-68
2022/11/22 03:54:00;;;;;;;;;57.00;46.00;;;;;-2.37;95.12;97302.94;4952869;28;102193;-68
2022/11/22 03:56:27;;;;;;;;;57.50;48.00;;;;;-2.42;94.17;97309.66;4950768;28;104300;-68
2022/11/22 03:58:54;;;;;;;;;72.33;46.67;;;;;-2.40;95.22;97310.34;4942205;28;103040;-68
2022/11/22 04:01:21;;;;;;;;;39.33;29.00;;;;;-2.41;95.50;97304.22;4948687;28;104018;-68
2022/11/22 04:03:48;;;;;;;;;69.25;48.25;;;;;-2.43;95.24;97306.19;4942842;28;102318;-69
2022/11/22 04:06:15;;;;;;;;;68.75;51.50;;;;;-2.45;96.26;97307.31;4929320;28;102218;-69
2022/11/22 04:08:42;;;;;;;;;71.75;54.50;;;;;-2.49;95.46;97298.88;4955542;28;103835;-68
2022/11/22 04:11:09;;;;;;;;;72.00;50.25;;;;;-2.47;95.56;97302.19;4932472;28;109222;-68
2022/11/22 04:16:22;;;;;;;;;77.75;61.00;;;;;-2.14;99.56;97290.03;4906611;28;102436;-69
2022/11/22 04:18:49;;;;;;;;;75.00;58.25;;;;;-2.01;100.00;97295.75;4947932;28;102627;-69
2022/11/22 04:21:34;;;;;;;;;66.25;50.25;;;;;-1.95;100.00;97310.22;4950618;28;103698;-69
2022/11/22 04:26:54;;;;;;;;;57.33;41.33;;;;;-2.00;96.80;97292.13;4892838;28;102372;-69
2022/11/22 04:29:22;;;;;;;;;36.00;31.33;;;;;-2.02;97.01;97286.16;4929720;28;102474;-69
2022/11/22 04:34:36;;;;;;;;;39.33;33.00;;;;;-2.03;95.75;97287.16;4951060;28;102180;-69
2022/11/22 04:37:04;;;;;;;;;26.33;24.33;;;;;-2.03;96.40;97291.63;4951293;28;102129;-69
2022/11/22 04:39:31;;;;;;;;;29.67;25.67;;;;;-2.05;95.40;97294.41;4949495;28;102357;-69
2022/11/22 04:44:45;;;;;;;;;59.00;46.00;;;;;-2.31;95.75;97261.78;4940114;28;102017;-69
2022/11/22 04:50:01;;;;;;;;;35.33;25.33;;;;;-2.13;94.79;97282.94;4942161;28;101943;-68
2022/11/22 04:55:14;;;;;;;;;21.67;17.00;;;;;-2.13;94.63;97286.41;4943706;28;102162;-69
2022/11/22 04:57:41;;;;;;;;;18.67;15.67;;;;;-2.14;95.24;97291.84;4952601;28;102127;-68
2022/11/22 05:00:08;;;;;;;;;21.67;15.67;;;;;-2.17;94.21;97290.38;4953185;28;102131;-68
2022/11/22 05:02:35;;;;;;;;;17.00;14.67;;;;;-2.17;95.28;97285.06;4943372;28;104042;-68
2022/11/22 05:05:02;;;;;;;;;14.33;11.33;;;;;-2.18;94.42;97287.84;4944924;28;102644;-68
2022/11/22 05:07:29;;;;;;;;;11.00;7.00;;;;;-2.21;94.38;97283.72;4949639;28;102323;-68
2022/11/22 05:09:56;;;;;;;;;22.33;14.00;;;;;-2.25;93.60;97279.69;4951407;28;102088;-68
2022/11/22 05:12:23;;;;;;;;;11.67;8.67;;;;;-2.21;93.51;97290.81;4942249;28;103976;-68
2022/11/22 05:14:50;;;;;;;;;13.67;11.67;;;;;-2.27;92.86;97289.63;4948098;28;102499;-69
2022/11/22 05:17:17;;;;;;;;;26.00;24.00;;;;;-2.32;93.10;97283.94;4926667;28;102460;-69
2022/11/22 05:19:44;;;;;;;;;40.00;26.33;;;;;-2.40;95.13;97283.88;4945406;28;102375;-69
2022/11/22 05:22:16;;;;;;;;;36.33;29.00;;;;;-2.39;93.62;97282.91;4940678;28;104321;-69
2022/11/22 05:24:43;;;;;;;;;65.00;46.00;;;;;-2.45;95.36;97286.16;4949415;28;102674;-68
2022/11/22 05:27:10;;;;;;;;;62.25;49.50;;;;;-2.47;95.56;97288.94;4928045;28;102198;-69
2022/11/22 05:29:37;;;;;;;;;44.67;39.00;;;;;-2.43;95.76;97279.72;4952230;28;102630;-69
2022/11/22 05:32:03;;;;;;;;;36.67;29.33;;;;;-2.41;95.22;97277.75;4949448;28;104003;-69
2022/11/22 05:34:30;;;;;;;;;36.00;27.00;;;;;-2.34;94.26;97283.25;4942278;28;102511;-69
2022/11/22 05:36:58;;;;;;;;;25.67;25.67;;;;;-2.32;94.86;97284.78;4940945;28;102178;-69
2022/11/22 05:39:24;;;;;;;;;23.67;19.67;;;;;-2.28;94.68;97282.66;4949195;28;102604;-69
2022/11/22 05:41:54;;;;;;;;;23.67;18.67;;;;;-2.25;94.82;97282.34;4949359;28;104311;-69
2022/11/22 05:44:22;;;;;;;;;20.67;14.00;;;;;-2.29;94.18;97276.53;4951157;28;102333;-69
2022/11/22 05:46:49;;;;;;;;;16.00;10.33;;;;;-2.25;95.17;97293.75;4948069;28;102099;-70
2022/11/22 05:49:16;;;;;;;;;18.33;16.33;;;;;-2.30;94.30;97289.94;4945033;28;103845;-69
2022/11/22 05:51:43;;;;;;;;;13.00;11.00;;;;;-2.27;94.00;97293.09;4949209;28;104018;-69
2022/11/22 05:54:10;;;;;;;;;8.00;7.67;;;;;-2.25;92.98;97292.91;4946991;28;102415;-69
2022/11/22 05:56:38;;;;;;;;;8.33;8.00;;;;;-2.46;93.57;97258.84;4946517;28;102111;-69
2022/11/22 05:59:05;;;;;;;;;11.67;9.33;;;;;-2.32;92.51;97294.53;4950050;28;102491;-69
2022/11/22 06:01:32;;;;;;;;;5.00;4.00;;;;;-2.37;92.52;97291.50;4944534;28;104115;-69
2022/11/22 06:03:59;;;;;;;;;14.67;9.67;;;;;-2.40;92.99;97299.75;4950574;28;102199;-69
2022/11/22 06:06:25;;;;;;;;;9.00;8.00;;;;;-2.43;92.48;97289.50;4942501;28;102457;-69
2022/11/22 06:08:52;;;;;;;;;8.67;5.67;;;;;-2.41;92.91;97287.50;4940775;28;102528;-68
2022/11/22 06:11:22;;;;;;;;;7.00;5.00;;;;;-2.40;92.79;97292.66;4938049;28;106011;-69
2022/11/22 06:13:51;;;;;;;;;13.00;10.67;;;;;-2.45;91.47;97299.38;4923426;28;102472;-69
2022/11/22 06:16:18;;;;;;;;;36.00;29.00;;;;;-2.49;92.23;97300.69;4928465;28;102167;-68
2022/11/22 06:18:45;;;;;;;;;29.67;24.67;;;;;-2.50;94.12;97304.31;4941268;28;102709;-68
2022/11/22 06:21:15;;;;;;;;;28.33;21.00;;;;;-2.50;93.37;97299.84;4942532;28;103994;-68
2022/11/22 06:23:42;;;;;;;;;34.00;29.67;;;;;-2.51;92.69;97297.34;4948567;28;102244;-68
2022/11/22 06:26:15;;;;;;;;;30.00;23.33;;;;;-2.46;92.70;97303.00;4950451;28;103554;-68
2022/11/22 06:28:43;;;;;;;;;32.33;23.33;;;;;-2.42;93.74;97301.72;4932885;28;102051;-68
2022/11/22 06:31:25;;;;;;;;;38.67;34.00;;;;;-2.43;93.44;97300.06;4946462;28;108746;-69
2022/11/22 06:33:54;;;;;;;;;64.50;49.50;;;;;-2.49;94.81;97303.31;4942318;28;102471;-68
2022/11/22 06:36:23;;;;;;;;;63.25;49.50;;;;;-2.50;95.03;97306.94;4923334;28;102326;-69
2022/11/22 06:38:51;;;;;;;;;74.75;57.00;;;;;-2.54;95.19;97305.59;4947630;28;102410;-68
2022/11/22 06:41:20;;;;;;;;;79.00;58.50;;;;;-2.49;95.08;97313.91;4934371;28;103996;-68
2022/11/22 06:43:49;;;;;;;;;77.75;61.75;;;;;-2.50;96.45;97309.59;4916785;28;102333;-70
2022/11/22 06:46:19;;;;;;;;;75.50;52.25;;;;;-2.39;96.70;97322.59;4933421;28;102196;-69
2022/11/22 06:48:46;;;;;;;;;51.33;40.00;;;;;-2.27;95.67;97321.38;4943400;28;103921;-69
2022/11/22 06:51:18;;;;;;;;;45.00;31.00;;;;;-2.20;96.26;97322.41;4945086;28;104193;-69
2022/11/22 06:53:46;;;;;;;;;35.33;31.33;;;;;-2.14;94.22;97321.81;4939757;28;102475;-69
2022/11/22 06:56:34;;;;;;;;;34.67;28.33;;;;;-2.06;94.78;97335.13;4943154;28;102379;-69
2022/11/22 06:59:03;;;;;;;;;30.00;26.00;;;;;-2.04;95.15;97327.88;4935820;28;102474;-69
2022/11/22 07:01:32;;;;;;;;;42.33;34.67;;;;;-1.99;93.78;97330.88;4940250;28;103986;-69
2022/11/22 07:04:00;;;;;;;;;29.33;25.33;;;;;-1.77;95.89;97339.31;4935523;28;102674;-69
2022/11/22 07:06:33;;;;;;;;;42.33;34.67;;;;;-1.71;96.82;97322.81;4940079;28;102149;-69
2022/11/22 07:09:02;;;;;;;;;58.00;46.00;;;;;-1.53;97.48;97331.53;4945700;28;102397;-70
2022/11/22 07:11:30;;;;;;;;;6.00;6.00;;;;;-1.41;97.96;97324.97;4948845;28;104082;-71
2022/11/22 07:13:59;;;;;;;;;73.25;58.25;;;;;-1.27;97.89;97332.31;4925995;28;103834;-71
2022/11/22 07:16:34;;;;;;;;;77.00;55.00;;;;;-1.17;98.24;97333.00;4918742;28;103019;-69
2022/11/22 07:19:01;;;;;;;;;80.50;60.50;;;;;-1.08;98.19;97326.75;4946466;28;102188;-72
2022/11/22 07:21:28;;;;;;;;;91.25;64.00;;;;;-0.97;97.46;97323.81;4937566;28;103977;-71
2022/11/22 07:23:55;;;;;;;;;86.00;62.25;;;;;-0.82;97.89;97325.88;4942446;28;103046;-73
2022/11/22 07:26:24;;;;;;;;;80.50;57.00;;;;;-0.73;97.69;97320.41;4924747;28;103249;-70
2022/11/22 07:28:51;;;;;;;;;69.25;53.00;;;;;-0.60;97.91;97320.78;4937890;28;102372;-70
2022/11/22 07:31:19;;;;;;;;;70.50;48.50;;;;;-0.54;96.80;97325.41;4941240;28;104004;-71
2022/11/22 07:33:46;;;;;;;;;78.00;59.25;;;;;-0.45;97.39;97320.94;4938639;28;102446;-70
2022/11/22 07:36:18;;;;;;;;;64.25;49.50;;;;;-0.44;97.16;97306.69;4942239;28;103319;-69
2022/11/22 07:38:47;;;;;;;;;58.00;46.33;;;;;-0.23;96.91;97330.97;4936932;28;102273;-69
2022/11/22 07:41:15;;;;;;;;;56.00;48.33;;;;;-0.13;97.04;97326.28;4934966;28;103518;-69
2022/11/22 07:43:43;;;;;;;;;50.00;44.00;;;;;0.01;96.56;97327.47;4934191;28;102312;-69
2022/11/22 07:46:32;;;;;;;;;41.67;39.00;;;;;0.16;96.34;97327.63;4946515;28;102383;-69
2022/11/22 07:49:00;;;;;;;;;35.33;30.33;;;;;0.09;95.71;97297.41;4950325;28;102404;-69
2022/11/22 07:51:27;;;;;;;;;42.67;30.00;;;;;0.38;95.24;97333.09;4952726;28;103491;-69
2022/11/22 07:53:55;;;;;;;;;32.00;28.00;;;;;0.50;95.36;97322.91;4950453;28;102105;-70
2022/11/22 07:56:22;;;;;;;;;32.00;29.00;;;;;0.60;94.70;97325.41;4952018;28;102387;-70
2022/11/22 07:58:49;;;;;;;;;40.67;33.33;;;;;0.69;94.53;97321.72;4953193;28;102715;-70
2022/11/22 08:01:18;;;;;;;;;38.33;35.00;;;;;0.80;93.66;97327.50;4952195;28;103986;-70
2022/11/22 08:03:45;;;;;;;;;56.67;45.00;;;;;0.86;93.73;97316.16;4954141;28;102329;-70
2022/11/22 08:06:12;;;;;;;;;35.00;33.00;;;;;0.97;93.58;97320.28;4950507;28;102390;-70
2022/11/22 08:08:40;;;;;;;;;58.33;43.33;;;;;1.00;93.58;97329.75;4952652;28;102025;-70
2022/11/22 08:11:08;;;;;;;;;35.67;31.33;;;;;1.15;93.20;97330.69;4952808;28;104093;-70
2022/11/22 08:13:35;;;;;;;;;44.67;34.00;;;;;1.23;92.51;97323.50;4952705;28;102469;-70
2022/11/22 08:16:09;;;;;;;;;42.67;29.33;;;;;1.38;92.29;97342.25;4949191;28;102337;-70
2022/11/22 08:18:37;;;;;;;;;42.00;34.67;;;;;1.45;92.62;97335.19;4946239;28;102740;-70
2022/11/22 08:21:06;;;;;;;;;40.00;33.67;;;;;1.58;91.61;97332.78;4952708;28;104024;-70
2022/11/22 08:23:34;;;;;;;;;48.33;40.00;;;;;1.70;91.90;97328.75;4952676;28;102634;-71
2022/11/22 08:26:01;;;;;;;;;38.00;32.67;;;;;1.80;92.02;97315.97;4951450;28;102491;-71
2022/11/22 08:28:28;;;;;;;;;30.33;25.67;;;;;1.97;90.86;97323.88;4944537;28;102101;-71
2022/11/22 08:31:00;;;;;;;;;37.00;31.33;;;;;2.05;89.78;97326.47;4951185;28;104223;-71
2022/11/22 08:33:27;;;;;;;;;35.00;27.67;;;;;2.13;89.53;97323.72;4952838;28;102605;-71
2022/11/22 08:35:54;;;;;;;;;31.00;26.00;;;;;2.21;89.90;97329.00;4925455;28;102402;-70
2022/11/22 08:38:21;;;;;;;;;38.00;29.00;;;;;2.30;88.72;97327.91;4953720;28;102078;-70
2022/11/22 08:40:49;;;;;;;;;39.33;30.33;;;;;2.35;88.13;97320.19;4951411;28;104252;-70
2022/11/22 08:43:17;;;;;;;;;54.67;44.00;;;;;2.44;88.34;97328.94;4952480;28;102577;-70
2022/11/22 08:45:44;;;;;;;;;68.00;50.00;;;;;2.43;89.07;97325.44;4954036;28;101958;-70
2022/11/22 08:48:10;;;;;;;;;58.33;41.33;;;;;2.57;88.41;97323.81;4950858;28;102037;-70
2022/11/22 08:50:40;;;;;;;;;63.33;46.00;;;;;2.65;88.13;97326.44;4948268;28;108733;-70
2022/11/22 08:53:09;;;;;;;;;58.00;42.67;;;;;2.72;86.64;97318.50;4951693;28;102410;-69
2022/11/22 08:55:35;;;;;;;;;44.67;35.00;;;;;2.90;86.12;97321.63;4953357;28;101919;-70
2022/11/22 08:58:02;;;;;;;;;53.00;39.00;;;;;2.98;86.02;97310.84;4953299;28;102426;-69
2022/11/22 09:00:29;;;;;;;;;39.00;36.00;;;;;3.10;84.94;97317.41;4950959;28;104157;-70
2022/11/22 09:02:59;;;;;;;;;47.33;38.33;;;;;3.13;84.86;97315.19;4951393;28;102579;-69
2022/11/22 09:05:26;;;;;;;;;33.00;27.00;;;;;3.31;84.74;97319.31;4953937;28;102321;-69
2022/11/22 09:07:53;;;;;;;;;28.50;25.50;;;;;3.40;84.04;97316.34;4953393;28;102286;-69
2022/11/22 09:10:40;;;;;;;;;25.00;24.00;;;;;3.58;82.64;97316.75;4949248;28;102807;-69
2022/11/22 09:13:07;;;;;;;;;29.25;24.00;;;;;3.78;83.02;97303.59;4953367;28;103905;-69
2022/11/22 09:15:34;;;;;;;;;32.75;25.75;;;;;3.96;82.12;97301.31;4942692;28;102349;-70
2022/11/22 09:18:02;;;;;;;;;26.50;23.00;;;;;4.12;81.27;97292.19;4953368;28;102709;-70
2022/11/22 09:20:29;;;;;;;;;25.50;23.25;;;;;4.27;80.13;97298.31;4951769;28;104050;-69
2022/11/22 09:22:56;;;;;;;;;28.50;26.25;;;;;4.35;78.74;97292.81;4946362;28;102764;-70
2022/11/22 09:25:23;;;;;;;;;31.00;25.75;;;;;4.41;77.86;97300.03;4952336;28;102310;-69
2022/11/22 09:27:50;;;;;;;;;23.75;22.25;;;;;4.60;77.17;97303.06;4952829;28;102570;-70
2022/11/22 09:30:17;;;;;;;;;22.00;20.25;;;;;4.74;77.43;97307.50;4951711;28;103983;-70
2022/11/22 09:32:44;;;;;;;;;24.00;21.00;;;;;4.82;76.28;97310.84;4954607;28;102394;-69
2022/11/22 09:35:11;;;;;;;;;31.50;27.50;;;;;4.86;76.29;97305.94;4951284;28;104255;-69
2022/11/22 09:37:38;;;;;;;;;24.25;21.75;;;;;4.95;75.24;97296.72;4952097;28;102046;-70
2022/11/22 09:40:06;;;;;;;;;25.00;21.00;;;;;4.99;74.95;97300.66;4950826;28;104048;-70
2022/11/22 09:42:51;;;;;;;;;32.50;26.75;;;;;5.02;75.06;97286.84;4942892;28;102165;-70
2022/11/22 09:45:41;;;;;;;;;21.50;21.25;;;;;5.09;73.98;97290.38;4937393;28;102162;-70
2022/11/22 09:48:26;;;;;;;;;18.25;15.00;;;;;5.26;74.47;97296.25;4932768;28;102473;-69
2022/11/22 09:51:06;;;;;;;;;20.25;15.25;;;;;5.40;73.84;97288.03;4937835;28;108664;-69
2022/11/22 09:53:37;;;;;;;;;17.50;16.25;;;;;5.47;72.17;97290.75;4939501;28;102087;-70
2022/11/22 09:56:10;;;;;;;;;23.50;18.25;;;;;5.27;71.61;97241.63;4936087;28;102312;-69
2022/11/22 09:58:41;;;;;;;;;20.00;20.00;;;;;5.60;71.04;97295.34;4947246;28;102500;-69
2022/11/22 10:01:18;;;;;;;;;25.75;22.50;;;;;5.64;70.87;97281.31;4948287;28;103991;-69
2022/11/22 10:03:48;;;;;;;;;14.25;13.00;;;;;5.73;70.76;97284.66;4948620;28;102368;-69
2022/11/22 10:06:31;;;;;;;;;23.75;17.00;;;;;5.84;69.55;97282.22;4947230;28;102573;-69
2022/11/22 10:09:27;;;;;;;;;20.00;16.50;;;;;5.94;67.92;97286.38;4934307;28;102924;-69
2022/11/22 10:12:06;;;;;;;;;19.75;17.50;;;;;5.97;68.21;97284.13;4927985;28;108651;-70
2022/11/22 10:14:51;;;;;;;;;22.50;16.00;;;;;6.10;67.69;97286.81;4927618;28;102319;-70
2022/11/22 10:17:21;;;;;;;;;19.50;16.00;;;;;6.26;67.22;97289.09;4937779;28;102170;-70
2022/11/22 10:20:15;;;;;;;;;8.50;8.50;;;;;6.47;67.02;97284.56;4942315;28;102437;-70
2022/11/22 10:22:43;;;;;;;;;14.00;14.00;;;;;6.52;66.03;97277.53;4937346;28;108699;-69
2022/11/22 10:25:21;;;;;;;;;23.25;19.00;;;;;6.55;65.27;97279.78;4944398;28;102190;-69
2022/11/22 10:28:10;;;;;;;;;16.25;11.75;;;;;6.70;63.74;97266.16;4932884;28;102904;-69
2022/11/22 10:30:44;;;;;;;;;10.25;8.00;;;;;6.96;63.95;97276.00;4949388;28;109776;-69
2022/11/22 10:33:33;;;;;;;;;10.25;7.25;;;;;7.10;62.18;97265.03;4946896;28;103987;-69
2022/11/22 10:36:17;;;;;;;;;7.00;4.00;;;;;7.26;62.83;97266.41;4931375;28;102145;-69
2022/11/22 10:38:53;;;;;;;;;6.50;5.50;;;;;7.36;62.21;97257.88;4951690;28;102288;-69
2022/11/22 10:41:32;;;;;;;;;9.50;6.25;;;;;7.44;61.32;97260.31;4949186;28;102375;-70
2022/11/22 10:44:14;;;;;;;;;13.50;12.00;;;;;7.35;62.59;97265.13;4955120;28;104032;-69
2022/11/22 10:47:08;;;;;;;;;17.00;16.25;;;;;7.42;61.01;97262.41;4941856;28;102386;-69
2022/11/22 10:49:59;;;;;;;;;16.75;13.00;;;;;7.37;60.92;97260.38;4946569;28;102424;-68
2022/11/22 10:52:43;;;;;;;;;10.75;8.00;;;;;7.49;60.53;97255.94;4936838;28;101996;-69
2022/11/22 10:55:21;;;;;;;;;18.75;12.75;;;;;7.43;60.13;97250.63;4925115;28;103527;-69
2022/11/22 10:58:13;;;;;;;;;18.00;14.00;;;;;7.38;60.52;97242.38;4939398;28;102314;-68
2022/11/22 11:00:44;;;;;;;;;12.00;9.25;;;;;7.29;58.93;97238.28;4940140;28;102034;-69
2022/11/22 11:03:23;;;;;;;;;13.25;9.00;;;;;7.39;59.78;97244.00;4943480;28;102568;-68
2022/11/22 11:06:25;;;;;;;;;12.50;10.50;;;;;7.35;58.15;97232.84;4946695;28;108600;-69
2022/11/22 11:09:18;;;;;;;;;9.75;8.00;;;;;7.37;58.82;97230.78;4935697;28;102306;-69
2022/11/22 11:12:37;;;;;;;;;10.50;9.00;;;;;7.45;60.47;97227.00;4944567;28;102302;-69
2022/11/22 11:15:16;;;;;;;;;11.00;9.50;;;;;7.45;59.81;97232.41;4931890;28;102096;-68
2022/11/22 11:17:48;;;;;;;;;14.25;10.50;;;;;7.49;59.38;97229.06;4923348;28;109187;-69
2022/11/22 11:20:27;;;;;;;;;8.00;7.00;;;;;7.57;59.93;97230.66;4953922;28;102204;-68
2022/11/22 11:22:54;;;;;;;;;8.75;8.00;;;;;7.53;57.71;97221.38;4950943;28;102268;-70
2022/11/22 11:25:44;;;;;;;;;10.00;8.75;;;;;7.35;58.93;97199.75;4942595;28;102456;-69
2022/11/22 11:28:21;;;;;;;;;10.50;9.00;;;;;7.49;58.58;97225.53;4950985;28;105502;-69
2022/11/22 11:30:57;;;;;;;;;8.75;7.00;;;;;7.61;58.54;97232.72;4945544;28;102538;-70
2022/11/22 11:33:31;;;;;;;;;13.75;7.75;;;;;7.65;56.96;97227.75;4940983;28;102510;-68
2022/11/22 11:36:03;;;;;;;;;7.00;5.00;;;;;7.75;56.85;97229.94;4945893;28;102244;-68
2022/11/22 11:38:40;;;;;;;;;8.25;7.25;;;;;7.78;57.37;97235.72;4943504;28;103937;-68
2022/11/22 11:41:28;;;;;;;;;5.00;4.75;;;;;7.87;56.94;97225.53;4944174;28;102766;-69
2022/11/22 11:43:57;;;;;;;;;12.50;9.25;;;;;7.84;56.11;97234.00;4950559;28;101994;-69
2022/11/22 11:46:26;;;;;;;;;7.75;7.75;;;;;7.96;56.26;97233.13;4955268;28;102368;-69
2022/11/22 11:49:19;;;;;;;;;6.50;5.00;;;;;7.98;57.15;97228.34;4954028;28;103975;-69